Time;durP1;ratioP1;P1;durP2;ratioP2;P2;SDS_P1;SDS_P2;PMS_P1;PMS_P2;Temp;Humidity;BMP_temperature;BMP_pressure;BME280_temperature;BME280_humidity;BME280_pressure;Samples;Min_cycle;Max_cycle;Signal;HPM_P1;HPM_P2
2022/09/20 00:01:10;;;;;;;4.88;0.73;;;;;;;24.31;41.39;100762.34;5071121;28;20459;-48
2022/09/20 00:03:38;;;;;;;0.95;0.52;;;;;;;24.08;42.44;100755.91;5071013;28;20469;-49
2022/09/20 00:06:07;;;;;;;2.33;0.60;;;;;;;23.94;42.62;100756.69;5070668;28;20396;-49
2022/09/20 00:08:34;;;;;;;2.67;0.80;;;;;;;23.72;42.17;100756.47;5070905;28;20028;-48
2022/09/20 00:11:05;;;;;;;3.33;0.70;;;;;;;23.51;42.54;100761.38;5070941;28;20036;-49
2022/09/20 00:13:33;;;;;;;2.53;0.80;;;;;;;23.59;42.78;100762.63;5070780;28;20029;-51
2022/09/20 00:15:59;;;;;;;1.60;1.02;;;;;;;23.49;43.16;100768.25;5071241;28;20048;-50
2022/09/20 00:18:26;;;;;;;1.60;0.65;;;;;;;23.40;43.92;100766.16;5069304;28;20114;-49
2022/09/20 00:20:52;;;;;;;6.25;0.88;;;;;;;23.38;43.16;100776.56;5071277;28;20025;-48
2022/09/20 00:23:19;;;;;;;4.07;0.80;;;;;;;23.35;43.18;100773.63;5070780;28;20056;-51
2022/09/20 00:25:55;;;;;;;2.13;0.80;;;;;;;23.42;42.79;100772.13;5071091;28;20025;-50
2022/09/20 00:28:22;;;;;;;4.53;0.80;;;;;;;23.10;43.18;100770.09;5071066;28;20098;-50
2022/09/20 00:30:48;;;;;;;1.92;0.57;;;;;;;23.08;43.54;100766.84;5071201;28;20346;-49
2022/09/20 00:33:14;;;;;;;2.55;0.75;;;;;;;22.82;44.38;100769.03;5071376;28;20115;-47
2022/09/20 00:35:45;;;;;;;2.17;0.73;;;;;;;22.72;44.74;100769.13;5089012;28;20024;-47
2022/09/20 00:38:12;;;;;;;4.60;0.60;;;;;;;22.55;45.55;100777.75;5091795;28;20094;-47
2022/09/20 00:40:44;;;;;;;3.70;1.08;;;;;;;22.57;46.57;100769.28;5103105;28;20098;-47
2022/09/20 00:43:17;;;;;;;4.22;0.98;;;;;;;22.50;46.07;100768.81;5090970;28;20038;-47
2022/09/20 00:45:49;;;;;;;1.88;0.75;;;;;;;22.33;47.11;100770.03;5091266;28;20099;-50
2022/09/20 00:48:27;;;;;;;3.63;1.00;;;;;;;22.22;47.37;100773.97;5091036;28;20023;-49
2022/09/20 00:51:10;;;;;;;3.10;0.98;;;;;;;22.33;47.18;100785.59;5090954;28;20043;-47
2022/09/20 00:53:41;;;;;;;1.92;0.70;;;;;;;22.34;47.33;100777.13;5091111;28;20027;-49
2022/09/20 00:56:29;;;;;;;2.47;0.70;;;;;;;22.34;47.03;100781.75;5106060;28;20023;-47
2022/09/20 00:59:29;;;;;;;2.30;0.80;;;;;;;22.26;47.47;100785.09;5110659;28;20137;-47
2022/09/20 01:02:23;;;;;;;4.63;0.93;;;;;;;22.08;48.08;100789.28;5104749;28;20032;-48
2022/09/20 01:04:50;;;;;;;3.88;1.20;;;;;;;21.98;48.85;100789.34;5073491;28;20036;-48
2022/09/20 01:07:21;;;;;;;4.13;1.00;;;;;;;21.87;48.59;100794.88;5070536;28;20546;-47
2022/09/20 01:09:48;;;;;;;4.00;1.30;;;;;;;21.75;49.40;100794.41;5070030;28;20130;-50
2022/09/20 01:12:19;;;;;;;3.40;0.70;;;;;;;21.56;49.84;100794.25;5070590;28;20027;-49
2022/09/20 01:14:49;;;;;;;2.38;0.98;;;;;;;21.57;50.72;100790.44;5091586;28;20038;-50
2022/09/20 01:17:18;;;;;;;4.53;1.27;;;;;;;21.33;51.14;100800.34;5110982;28;20012;-50
2022/09/20 01:20:18;;;;;;;4.32;1.10;;;;;;;21.45;50.97;100795.41;5112701;28;20467;-49
2022/09/20 01:22:59;;;;;;;7.43;1.23;;;;;;;21.30;51.30;100795.47;5097772;28;20028;-49
2022/09/20 01:25:53;;;;;;;5.28;1.25;;;;;;;21.37;51.11;100795.16;5074344;28;20144;-50
2022/09/20 01:28:20;;;;;;;2.70;0.88;;;;;;;21.18;51.73;100792.22;5080917;28;20484;-49
2022/09/20 01:31:08;;;;;;;9.60;1.67;;;;;;;21.15;51.69;100790.84;5114415;28;20074;-50
2022/09/20 01:33:53;;;;;;;4.88;1.60;;;;;;;21.21;51.38;100797.94;5114531;28;20051;-51
2022/09/20 01:36:56;;;;;;;4.28;1.23;;;;;;;21.12;52.13;100804.22;5114502;28;20028;-49
2022/09/20 01:39:53;;;;;;;4.72;1.23;;;;;;;20.93;53.25;100799.38;5114328;28;20027;-49
2022/09/20 01:42:29;;;;;;;6.28;1.30;;;;;;;20.94;53.23;100800.19;5093060;28;20028;-50
2022/09/20 01:45:05;;;;;;;5.53;1.23;;;;;;;20.63;54.64;100802.13;5093952;28;20035;-49
2022/09/20 01:48:09;;;;;;;4.45;1.55;;;;;;;20.79;53.99;100795.59;5093553;28;20027;-47
2022/09/20 01:50:52;;;;;;;4.53;1.50;;;;;;;20.71;54.99;100793.41;5069748;28;20093;-48
2022/09/20 01:53:39;;;;;;;6.90;1.60;;;;;;;20.65;54.86;100798.03;5084233;28;20066;-48
2022/09/20 01:56:23;;;;;;;4.35;1.42;;;;;;;20.44;54.97;100789.09;5092554;28;20110;-47
2022/09/20 01:59:16;;;;;;;5.68;1.38;;;;;;;19.98;56.87;100797.19;5085476;28;20158;-50
2022/09/20 02:01:51;;;;;;;5.70;2.05;;;;;;;20.16;57.29;100797.78;5080001;28;20078;-48
2022/09/20 02:05:04;;;;;;;5.50;1.95;;;;;;;20.06;57.67;100793.16;5091115;28;20028;-50
2022/09/20 02:08:08;;;;;;;8.93;1.73;;;;;;;19.99;58.72;100793.41;5079572;28;20035;-51
2022/09/20 02:10:56;;;;;;;4.07;1.40;;;;;;;19.87;59.03;100798.25;5081033;28;20028;-51
2022/09/20 02:13:25;;;;;;;7.20;1.55;;;;;;;19.68;59.75;100797.94;5092616;28;20032;-48
2022/09/20 02:16:03;;;;;;;8.80;1.85;;;;;;;19.47;60.74;100796.22;5112678;28;20490;-50
2022/09/20 02:19:04;;;;;;;4.35;1.45;;;;;;;19.47;60.28;100798.94;5098808;28;20499;-48
2022/09/20 02:21:45;;;;;;;5.88;1.85;;;;;;;19.39;60.59;100800.28;5109365;28;20027;-49
2022/09/20 02:24:38;;;;;;;8.48;1.58;;;;;;;19.38;60.95;100808.69;5113683;28;20031;-51
2022/09/20 02:27:22;;;;;;;9.80;2.03;;;;;;;19.23;61.86;100823.81;5106315;28;20027;-50
2022/09/20 02:29:54;;;;;;;9.25;2.13;;;;;;;19.32;62.13;100824.13;5091934;28;20051;-51
2022/09/20 02:32:50;;;;;;;9.30;2.00;;;;;;;19.14;63.41;100827.28;5112444;28;20019;-49
2022/09/20 02:35:21;;;;;;;6.28;1.90;;;;;;;19.04;63.69;100829.94;5099841;27;20028;-48
2022/09/20 02:37:54;;;;;;;6.15;1.70;;;;;;;19.04;64.19;100833.47;5104586;28;20035;-51
2022/09/20 02:40:39;;;;;;;8.10;2.03;;;;;;;18.89;64.88;100836.09;5108176;28;20024;-48
2022/09/20 02:43:21;;;;;;;5.80;1.65;;;;;;;19.02;64.31;100835.63;5092905;28;20105;-51
2022/09/20 02:46:00;;;;;;;6.30;1.90;;;;;;;18.96;65.08;100845.63;5096463;28;20028;-52
2022/09/20 02:48:43;;;;;;;10.25;2.67;;;;;;;18.86;65.50;100847.47;5111443;28;20043;-52
2022/09/20 02:51:40;;;;;;;6.40;2.00;;;;;;;18.81;66.29;100850.13;5109649;28;20357;-49
2022/09/20 02:54:27;;;;;;;5.03;1.88;;;;;;;18.87;66.43;100851.78;5084201;28;20032;-51
2022/09/20 02:57:18;;;;;;;7.35;1.95;;;;;;;18.41;68.00;100848.69;5107787;28;20156;-51
2022/09/20 02:59:54;;;;;;;6.00;1.52;;;;;;;18.69;67.15;100856.56;5074079;28;20062;-51
2022/09/20 03:02:50;;;;;;;4.93;1.58;;;;;;;18.29;68.96;100853.47;5108572;28;20203;-48
2022/09/20 03:05:24;;;;;;;9.75;1.50;;;;;;;18.42;68.29;100863.88;5112551;28;20043;-48
2022/09/20 03:07:51;;;;;;;6.72;1.98;;;;;;;18.38;68.71;100865.50;5111085;28;20053;-50
2022/09/20 03:10:21;;;;;;;5.75;1.75;;;;;;;18.19;68.89;100873.97;5111696;28;20084;-49
2022/09/20 03:13:01;;;;;;;6.05;1.50;;;;;;;18.30;68.89;100880.31;5105248;28;20376;-49
2022/09/20 03:16:13;;;;;;;4.57;1.75;;;;;;;18.39;68.60;100888.81;5106686;28;20034;-48
2022/09/20 03:19:00;;;;;;;6.35;1.77;;;;;;;18.10;69.78;100891.78;5046837;28;20119;-49
2022/09/20 03:21:59;;;;;;;6.05;2.10;;;;;;;18.26;69.18;100895.44;5107221;28;20078;-50
2022/09/20 03:25:02;;;;;;;5.22;2.15;;;;;;;18.18;69.65;100896.72;5112410;28;20106;-50
2022/09/20 03:27:53;;;;;;;8.90;1.98;;;;;;;18.09;70.09;100895.53;5111054;28;20028;-51
2022/09/20 03:30:25;;;;;;;6.63;2.20;;;;;;;18.07;70.07;100907.69;5087110;28;20362;-50
2022/09/20 03:33:20;;;;;;;8.43;2.20;;;;;;;18.11;70.32;100901.53;5102916;28;20498;-49
2022/09/20 03:36:18;;;;;;;13.70;2.10;;;;;;;18.00;70.66;100902.50;5106684;28;20493;-50
2022/09/20 03:38:47;;;;;;;8.18;2.47;;;;;;;17.82;71.48;100897.38;5100164;28;20032;-50
2022/09/20 03:41:32;;;;;;;7.93;1.85;;;;;;;17.79;71.70;100903.31;5104610;28;20024;-50
2022/09/20 03:44:13;;;;;;;6.32;2.20;;;;;;;17.79;71.96;100909.53;5102831;28;20372;-49
2022/09/20 03:46:47;;;;;;;5.80;1.58;;;;;;;17.82;71.71;100927.16;5080288;28;20038;-50
2022/09/20 03:49:34;;;;;;;5.72;2.08;;;;;;;17.85;71.50;100921.25;5109386;28;20102;-48
2022/09/20 03:52:25;;;;;;;8.13;2.10;;;;;;;17.71;72.26;100925.38;5109434;28;20039;-48
2022/09/20 03:55:28;;;;;;;4.95;1.88;;;;;;;17.76;72.13;100933.59;5110666;28;20127;-49
2022/09/20 03:58:15;;;;;;;7.40;1.55;;;;;;;17.76;72.13;100933.59;5101238;28;20515;-48
2022/09/20 04:01:10;;;;;;;7.45;2.20;;;;;;;17.75;72.65;100940.88;5106473;28;20047;-47
2022/09/20 04:03:56;;;;;;;5.80;1.83;;;;;;;17.85;71.77;100943.72;5077236;28;20092;-51
2022/09/20 04:06:25;;;;;;;7.28;2.25;;;;;;;17.92;71.68;100944.34;5096840;28;20284;-50
2022/09/20 04:09:22;;;;;;;6.95;2.15;;;;;;;17.82;72.35;100957.78;5110215;28;20042;-49
2022/09/20 04:12:02;;;;;;;4.57;2.20;;;;;;;17.86;71.99;100964.31;5104533;28;20110;-51
2022/09/20 04:14:52;;;;;;;11.20;2.00;;;;;;;17.86;71.37;100961.63;5093511;28;20468;-49
2022/09/20 04:17:39;;;;;;;6.60;1.88;;;;;;;17.88;71.93;100967.63;5103043;28;20102;-47
2022/09/20 04:20:13;;;;;;;3.35;1.40;;;;;;;17.71;72.26;100971.38;5108880;28;20104;-49
2022/09/20 04:22:42;;;;;;;4.18;1.63;;;;;;;17.92;71.48;100970.63;5079658;28;20028;-50
2022/09/20 04:25:22;;;;;;;7.10;1.92;;;;;;;17.90;71.67;100970.06;5109844;28;20456;-48
2022/09/20 04:28:21;;;;;;;3.78;1.67;;;;;;;17.62;72.21;100974.53;5109699;28;20098;-48
2022/09/20 04:30:54;;;;;;;4.03;1.63;;;;;;;17.69;71.95;100977.88;5083231;28;20111;-47
2022/09/20 04:33:30;;;;;;;5.15;1.50;;;;;;;17.61;71.93;100980.22;5092856;28;20039;-47
2022/09/20 04:39:02;;;;;;;10.60;1.92;;;;;;;17.56;72.18;100982.84;5076493;28;20067;-51
2022/09/20 04:41:37;;;;;;;4.32;1.25;;;;;;;17.55;71.86;100992.03;5105378;28;20036;-50
2022/09/20 04:44:29;;;;;;;6.90;1.52;;;;;;;17.57;71.73;100982.59;5106897;28;20034;-48
2022/09/20 04:47:30;;;;;;;9.65;1.70;;;;;;;17.67;70.38;100988.16;5063897;28;20108;-50
2022/09/20 04:50:26;;;;;;;6.47;2.58;;;;;;;17.61;70.83;100997.25;5108109;28;20109;-47
2022/09/20 04:53:21;;;;;;;4.75;1.50;;;;;;;17.47;71.31;100993.25;5055411;28;20052;-48
2022/09/20 04:55:56;;;;;;;3.60;1.50;;;;;;;17.40;72.02;100995.31;5111661;28;20392;-48
2022/09/20 04:58:27;;;;;;;5.43;1.55;;;;;;;17.54;71.47;101003.91;5101666;28;20504;-49
2022/09/20 05:01:18;;;;;;;3.00;1.38;;;;;;;17.66;70.70;101007.34;5110822;28;20447;-50
2022/09/20 05:04:21;;;;;;;5.25;1.30;;;;;;;17.74;70.47;101008.84;5103547;28;20054;-50
2022/09/20 05:06:53;;;;;;;3.88;1.52;;;;;;;17.37;71.80;101015.56;5113693;28;20059;-51
2022/09/20 05:09:41;;;;;;;2.92;1.33;;;;;;;17.23;72.62;101016.97;5113770;28;20023;-50
2022/09/20 05:12:29;;;;;;;4.40;1.58;;;;;;;17.27;72.58;101018.13;5078224;28;20555;-50
2022/09/20 05:15:07;;;;;;;5.25;1.38;;;;;;;17.38;72.30;101017.22;5114744;28;20031;-47
2022/09/20 05:17:58;;;;;;;3.92;1.88;;;;;;;17.46;71.98;101018.69;5111796;27;20059;-50
2022/09/20 05:20:42;;;;;;;8.05;1.98;;;;;;;17.63;71.17;101018.66;5111531;28;20041;-50
2022/09/20 05:23:17;;;;;;;5.30;2.33;;;;;;;17.59;71.23;101025.63;5100571;28;20061;-51
2022/09/20 05:25:53;;;;;;;;;;;;;;;17.35;72.46;101019.59;5113954;28;20072;-48
2022/09/20 05:28:38;;;;;;;7.15;1.85;;;;;;;17.48;72.12;101023.84;5103807;28;19916;-50
2022/09/20 05:31:41;;;;;;;8.48;2.47;;;;;;;17.62;71.44;101025.16;5088590;28;20036;-50
2022/09/20 05:34:18;;;;;;;7.65;1.88;;;;;;;17.26;72.39;101026.47;5073834;28;20481;-50
2022/09/20 05:36:57;;;;;;;5.13;1.88;;;;;;;17.22;72.37;101028.88;5081174;28;20023;-49
2022/09/20 05:40:06;;;;;;;4.03;1.67;;;;;;;17.17;72.27;101028.78;5113141;28;20368;-50
2022/09/20 05:43:19;;;;;;;3.13;1.55;;;;;;;17.23;72.23;101032.38;5056915;28;20046;-48
2022/09/20 05:46:06;;;;;;;5.57;1.95;;;;;;;17.21;71.83;101029.09;5087112;28;20042;-51
2022/09/20 05:48:59;;;;;;;6.38;1.42;;;;;;;17.12;71.43;101037.63;5112441;28;20035;-49
2022/09/20 05:52:02;;;;;;;6.15;1.55;;;;;;;17.05;71.76;101036.97;5112897;28;20031;-51
2022/09/20 05:54:46;;;;;;;4.70;1.60;;;;;;;17.04;71.82;101035.28;5112368;28;20122;-51
2022/09/20 05:57:21;;;;;;;3.53;1.27;;;;;;;17.01;71.58;101043.91;5107710;28;20105;-48
2022/09/20 06:00:18;;;;;;;3.38;1.52;;;;;;;16.98;71.59;101038.97;5095481;28;20293;-48
2022/09/20 06:03:03;;;;;;;4.22;1.50;;;;;;;17.07;71.49;101042.13;5088425;28;20035;-47
2022/09/20 06:05:44;;;;;;;4.10;1.55;;;;;;;16.96;71.37;101040.31;5111457;28;20024;-50
2022/09/20 06:08:32;;;;;;;7.45;1.40;;;;;;;16.91;71.19;101040.22;5083059;28;20042;-50
2022/09/20 06:11:29;;;;;;;4.70;1.50;;;;;;;16.90;71.26;101039.38;5091127;28;20070;-50
2022/09/20 06:14:18;;;;;;;5.40;1.73;;;;;;;16.80;71.74;101055.41;5093129;28;20027;-48
2022/09/20 06:16:53;;;;;;;6.93;1.60;;;;;;;16.80;71.60;101047.31;5100841;28;20034;-48
2022/09/20 06:19:22;;;;;;;;;;;;;;;16.76;71.97;101048.84;5112528;27;20088;-50
2022/09/20 06:21:55;;;;;;;6.68;1.98;;;;;;;16.77;71.69;101047.81;5102410;28;20022;-47
2022/09/20 06:24:51;;;;;;;4.10;1.33;;;;;;;16.82;71.76;101042.47;5109882;27;20049;-47
2022/09/20 06:27:20;;;;;;;;;;;;;;;16.72;71.99;101042.31;5112045;27;20035;-48
2022/09/20 06:29:59;;;;;;;3.50;1.52;;;;;;;16.66;72.33;101040.50;5090929;28;19916;-47
2022/09/20 06:32:26;;;;;;;3.72;1.60;;;;;;;16.58;72.05;101036.31;5088566;28;20100;-47
2022/09/20 06:34:53;;;;;;;6.25;1.58;;;;;;;16.45;72.73;101044.72;5111121;28;20032;-47
2022/09/20 06:43:32;;;;;;;9.07;2.00;;;;;;;16.31;73.67;101046.84;5091638;28;20070;-48
2022/09/20 06:45:58;;;;;;;5.03;1.90;;;;;;;16.29;73.40;101046.28;5092244;28;20034;-47
2022/09/20 06:48:25;;;;;;;6.57;2.22;;;;;;;16.18;74.41;101044.44;5072556;28;20012;-49
2022/09/20 06:50:51;;;;;;;7.55;1.77;;;;;;;16.25;73.97;101053.22;5075419;28;20032;-50
2022/09/20 06:53:25;;;;;;;5.38;2.30;;;;;;;16.38;73.16;101050.25;5109854;27;20066;-51
2022/09/20 06:55:52;;;;;;;7.00;2.00;;;;;;;16.34;73.17;101059.91;5108546;27;20027;-48
2022/09/20 06:58:18;;;;;;;5.18;2.60;;;;;;;15.76;75.77;101055.38;5109120;28;20019;-50
2022/09/20 07:00:44;;;;;;;5.78;2.42;;;;;;;15.69;75.99;101049.28;5108399;28;20020;-48
2022/09/20 07:03:11;;;;;;;4.22;2.28;;;;;;;15.43;76.96;101051.34;5111281;28;20506;-47
2022/09/20 07:05:38;;;;;;;6.80;1.83;;;;;;;15.56;76.48;101044.91;5110885;28;20039;-49
2022/09/20 07:08:05;;;;;;;5.47;1.80;;;;;;;15.79;75.22;101052.22;5074977;28;20025;-47
2022/09/20 07:10:31;;;;;;;7.05;1.95;;;;;;;15.84;74.71;101042.38;5072200;28;20170;-47
2022/09/20 07:12:59;;;;;;;4.57;2.10;;;;;;;16.02;73.63;101054.91;5106487;28;20589;-47
2022/09/20 07:15:31;;;;;;;5.38;2.33;;;;;;;15.93;74.00;101059.00;5099408;28;20068;-47
2022/09/20 07:18:01;;;;;;;3.67;1.60;;;;;;;15.87;74.11;101059.94;5093706;28;20044;-48
2022/09/20 07:20:27;;;;;;;4.85;1.70;;;;;;;15.63;75.27;101056.44;5112615;27;20057;-49
2022/09/20 07:22:53;;;;;;;6.32;1.70;;;;;;;15.53;75.23;101051.59;5110872;28;20084;-48
2022/09/20 07:25:20;;;;;;;5.10;2.00;;;;;;;15.22;76.89;101060.81;5110197;28;20544;-50
2022/09/20 07:27:49;;;;;;;8.63;1.88;;;;;;;15.11;77.41;101063.50;5108900;28;20368;-50
2022/09/20 07:30:17;;;;;;;6.78;1.77;;;;;;;15.29;76.39;101066.09;5091639;28;20107;-50
2022/09/20 07:32:43;;;;;;;4.97;2.80;;;;;;;15.46;75.46;101061.69;5104433;28;20055;-47
2022/09/20 07:35:11;;;;;;;9.82;3.42;;;;;;;15.42;75.63;101060.50;5112150;28;20083;-49
2022/09/20 07:37:40;;;;;;;7.55;2.60;;;;;;;14.96;77.62;101067.44;5109342;28;20062;-47
2022/09/20 07:40:09;;;;;;;7.68;2.67;;;;;;;15.22;76.92;101070.78;5101891;28;20020;-50
2022/09/20 07:42:35;;;;;;;9.43;2.17;;;;;;;15.21;76.51;101071.81;5108000;28;20027;-48
2022/09/20 07:45:02;;;;;;;5.57;1.88;;;;;;;15.26;76.40;101069.25;5104472;28;20113;-48
2022/09/20 07:47:34;;;;;;;5.63;1.45;;;;;;;15.37;75.87;101065.75;5109386;28;20030;-50
2022/09/20 07:50:01;;;;;;;2.90;1.20;;;;;;;15.53;75.07;101072.34;5112058;28;20032;-49
2022/09/20 07:52:27;;;;;;;4.53;1.40;;;;;;;15.65;74.77;101072.38;5110672;28;20486;-50
2022/09/20 07:54:53;;;;;;;3.90;1.58;;;;;;;15.57;74.94;101063.56;5111695;28;20119;-50
2022/09/20 07:57:19;;;;;;;4.65;1.65;;;;;;;15.59;74.54;101060.63;5109106;28;20175;-48
2022/09/20 07:59:46;;;;;;;7.93;1.88;;;;;;;15.58;74.83;101064.38;5092985;28;20031;-47
2022/09/20 08:02:16;;;;;;;3.90;1.25;;;;;;;15.40;75.16;101067.19;5099402;27;20057;-48
2022/09/20 08:04:42;;;;;;;4.50;1.83;;;;;;;15.38;74.91;101064.72;5091402;28;20032;-49
2022/09/20 08:07:08;;;;;;;4.10;1.50;;;;;;;15.26;75.63;101061.16;5103262;28;20095;-47
2022/09/20 08:09:34;;;;;;;4.90;1.63;;;;;;;15.07;76.59;101065.00;5104654;28;20124;-47
2022/09/20 08:12:01;;;;;;;3.95;1.63;;;;;;;14.88;77.26;101070.47;5105352;28;20016;-49
2022/09/20 08:14:27;;;;;;;2.75;1.48;;;;;;;14.93;76.75;101061.66;5091625;28;20035;-48
2022/09/20 08:16:57;;;;;;;3.40;1.45;;;;;;;14.44;78.93;101058.16;5108150;28;20019;-49
2022/09/20 08:19:23;;;;;;;6.30;1.73;;;;;;;14.25;79.82;101055.47;5111549;28;20119;-47
2022/09/20 08:21:52;;;;;;;2.70;1.40;;;;;;;14.13;80.76;101051.88;5108009;28;20035;-47
2022/09/20 08:24:19;;;;;;;6.95;1.60;;;;;;;14.22;79.88;101055.91;5111722;28;20027;-47
2022/09/20 08:26:47;;;;;;;6.20;1.70;;;;;;;14.42;79.13;101044.91;5108989;28;20102;-48
2022/09/20 08:29:14;;;;;;;4.28;1.58;;;;;;;14.29;79.33;101055.84;5093349;28;20514;-48
2022/09/20 08:31:41;;;;;;;5.10;1.50;;;;;;;14.47;78.66;101050.47;5084760;28;20031;-47
2022/09/20 08:34:08;;;;;;;4.03;1.73;;;;;;;14.37;79.11;101055.53;5114016;28;20027;-47
2022/09/20 08:36:37;;;;;;;5.00;1.55;;;;;;;14.39;78.95;101056.13;5104428;28;20108;-47
2022/09/20 08:39:04;;;;;;;5.10;1.88;;;;;;;14.13;80.12;101051.88;5074837;28;20029;-47
2022/09/20 08:41:35;;;;;;;3.72;1.55;;;;;;;13.97;81.27;101052.47;5094559;28;20097;-47
2022/09/20 08:44:12;;;;;;;5.22;1.60;;;;;;;13.79;81.94;101050.59;5077768;28;20506;-47
2022/09/20 08:46:52;;;;;;;7.75;2.17;;;;;;;13.77;82.41;101054.53;5075698;28;20025;-46
2022/09/20 08:49:27;;;;;;;5.43;1.70;;;;;;;13.65;82.94;101049.06;5093043;28;20039;-47
2022/09/20 08:51:56;;;;;;;6.82;1.75;;;;;;;13.69;82.71;101042.19;5109260;28;20031;-47
2022/09/20 08:54:29;;;;;;;6.82;1.80;;;;;;;13.67;82.95;101053.19;5112321;28;20055;-46
2022/09/20 08:56:57;;;;;;;5.15;1.60;;;;;;;13.82;82.39;101050.13;5113865;28;20020;-47
2022/09/20 08:59:24;;;;;;;3.03;1.45;;;;;;;14.00;81.25;101049.34;5111034;28;20444;-47
2022/09/20 09:01:52;;;;;;;4.35;1.40;;;;;;;14.22;80.58;101050.53;5097459;28;20095;-47
2022/09/20 09:04:22;;;;;;;5.65;1.48;;;;;;;14.44;79.78;101053.59;5109962;28;20088;-47
2022/09/20 09:06:51;;;;;;;6.63;1.50;;;;;;;14.58;78.45;101050.75;5112206;28;20383;-47
2022/09/20 09:09:26;;;;;;;4.90;1.25;;;;;;;14.55;78.27;101051.19;5115290;28;20035;-47
2022/09/20 09:11:54;;;;;;;2.88;1.30;;;;;;;14.57;78.21;101054.50;5113745;28;20031;-47
2022/09/20 09:14:48;;;;;;;3.33;1.35;;;;;;;14.63;77.81;101054.41;5115080;28;20482;-46
2022/09/20 09:17:17;;;;;;;2.65;1.20;;;;;;;14.50;77.47;101055.41;5108044;28;20039;-46
2022/09/20 09:19:51;;;;;;;4.25;1.33;;;;;;;14.37;77.85;101057.41;5113463;28;20398;-46
2022/09/20 09:22:32;;;;;;;4.95;1.38;;;;;;;14.62;77.00;101058.16;5112615;28;20031;-48
2022/09/20 09:25:12;;;;;;;4.95;1.35;;;;;;;14.45;76.96;101052.53;5112347;28;20028;-46
2022/09/20 09:28:02;;;;;;;6.95;1.98;;;;;;;13.87;79.63;101046.78;5105543;28;20051;-47
2022/09/20 09:30:30;;;;;;;4.30;1.40;;;;;;;13.74;79.71;101062.00;5081028;28;20345;-46
2022/09/20 09:33:14;;;;;;;7.47;1.50;;;;;;;13.78;79.66;101059.69;5088489;28;20034;-46
2022/09/20 09:35:41;;;;;;;5.23;2.00;;;;;;;13.51;80.92;101058.28;5102787;28;20089;-47
2022/09/20 09:38:20;;;;;;;3.60;1.23;;;;;;;13.53;81.11;101051.63;5103496;28;20043;-47
2022/09/20 09:41:28;;;;;;;6.47;1.80;;;;;;;13.60;80.45;101056.94;5077246;28;20036;-47
2022/09/20 09:44:20;;;;;;;5.72;1.85;;;;;;;13.34;81.63;101050.78;5114732;28;20055;-47
2022/09/20 09:46:49;;;;;;;8.73;1.63;;;;;;;13.23;82.32;101050.66;5105180;28;20024;-47
2022/09/20 09:49:17;;;;;;;2.72;1.25;;;;;;;13.15;82.54;101049.00;5073838;28;20029;-47
2022/09/20 09:52:00;;;;;;;5.53;1.50;;;;;;;13.06;82.84;101055.72;5092958;28;20527;-47
2022/09/20 09:54:30;;;;;;;4.63;1.60;;;;;;;12.91;83.54;101045.25;5113350;28;20057;-46
2022/09/20 09:57:19;;;;;;;3.80;1.80;;;;;;;12.99;83.12;101036.91;5111089;28;20038;-47
2022/09/20 09:59:54;;;;;;;4.03;1.58;;;;;;;13.07;82.54;101047.41;5092950;28;20323;-47
2022/09/20 10:02:53;;;;;;;3.83;1.70;;;;;;;13.30;81.89;101044.19;5110195;28;20067;-49
2022/09/20 10:05:43;;;;;;;2.80;1.35;;;;;;;13.42;81.11;101042.41;5113791;28;20115;-49
2022/09/20 10:08:14;;;;;;;5.65;1.67;;;;;;;13.44;80.72;101051.09;5097908;28;20100;-49
2022/09/20 10:10:52;;;;;;;4.32;1.42;;;;;;;13.57;79.91;101052.03;5110372;28;20119;-46
2022/09/20 10:13:21;;;;;;;2.55;1.20;;;;;;;13.34;80.26;101047.25;5073302;28;20036;-50
2022/09/20 10:16:00;;;;;;;4.05;1.20;;;;;;;13.69;79.16;101045.69;5090183;28;20033;-50
2022/09/20 10:18:47;;;;;;;3.90;1.20;;;;;;;13.68;78.62;101043.25;5108150;28;20110;-47
2022/09/20 10:21:44;;;;;;;2.95;1.50;;;;;;;13.34;79.70;101050.78;5112582;28;20037;-46
2022/09/20 10:24:29;;;;;;;2.10;1.00;;;;;;;13.51;79.26;101044.84;5100491;28;20545;-47
2022/09/20 10:27:10;;;;;;;3.42;1.10;;;;;;;13.63;78.55;101045.78;5111669;28;20119;-46
2022/09/20 10:30:00;;;;;;;5.07;1.75;;;;;;;13.56;78.40;101045.84;5103402;28;20046;-46
2022/09/20 10:32:38;;;;;;;2.33;1.13;;;;;;;13.22;79.57;101043.66;5101426;28;20057;-47
2022/09/20 10:35:13;;;;;;;5.05;1.27;;;;;;;13.24;79.27;101039.69;5111780;28;20027;-48
2022/09/20 10:38:00;;;;;;;2.40;1.15;;;;;;;12.97;80.37;101041.69;5094859;28;20032;-47
2022/09/20 10:43:29;;;;;;;3.88;1.67;;;;;;;13.02;80.18;101043.75;5072698;28;20044;-47
2022/09/20 10:46:11;;;;;;;7.10;1.75;;;;;;;13.20;79.49;101041.13;5082966;28;20032;-46
2022/09/20 10:48:51;;;;;;;3.42;0.98;;;;;;;13.26;78.90;101053.72;5100717;27;20107;-46
2022/09/20 10:51:44;;;;;;;6.25;1.30;;;;;;;13.19;78.82;101050.22;5096097;28;20114;-46
2022/09/20 10:54:21;;;;;;;3.33;1.00;;;;;;;13.52;77.35;101050.00;5110801;28;20039;-46
2022/09/20 10:56:55;;;;;;;4.93;1.23;;;;;;;13.04;78.48;101047.03;5111286;28;20035;-47
2022/09/20 10:59:52;;;;;;;2.63;1.20;;;;;;;12.74;79.64;101058.38;5109587;28;20678;-47
2022/09/20 11:02:58;;;;;;;6.38;1.25;;;;;;;12.81;79.71;101059.16;5082819;28;20118;-48
2022/09/20 11:05:24;;;;;;;;;;;;;;;12.81;79.40;101053.78;5109768;28;20035;-47
2022/09/20 11:08:00;;;;;;;2.80;1.33;;;;;;;12.88;78.92;101059.94;5109622;28;20299;-47
2022/09/20 11:10:38;;;;;;;3.75;1.10;;;;;;;13.01;78.43;101058.22;5112799;28;20032;-47
2022/09/20 11:13:21;;;;;;;1.90;0.90;;;;;;;12.97;78.04;101065.06;5071853;28;20047;-46
2022/09/20 11:15:59;;;;;;;4.15;0.80;;;;;;;13.01;78.13;101063.59;5107603;28;20035;-46
2022/09/20 11:18:42;;;;;;;2.70;0.95;;;;;;;13.03;77.84;101051.56;5108853;28;20056;-47
2022/09/20 11:21:18;;;;;;;3.72;1.30;;;;;;;13.21;77.08;101056.22;5110200;28;20055;-47
2022/09/20 11:24:09;;;;;;;2.45;1.10;;;;;;;13.24;76.79;101058.50;5104044;28;20032;-47
2022/09/20 11:26:48;;;;;;;2.88;1.00;;;;;;;13.30;76.39;101057.63;5087218;28;20028;-48
2022/09/20 11:29:28;;;;;;;6.63;1.20;;;;;;;13.15;76.84;101059.75;5094205;28;20034;-46
2022/09/20 11:32:05;;;;;;;4.50;0.95;;;;;;;13.18;76.41;101060.16;5101392;28;20027;-47
2022/09/20 11:34:43;;;;;;;3.65;1.25;;;;;;;13.27;76.08;101058.06;5099451;28;20127;-47
2022/09/20 11:37:09;;;;;;;3.90;0.85;;;;;;;13.20;75.80;101054.56;5091788;28;20024;-47
2022/09/20 11:39:45;;;;;;;2.70;0.90;;;;;;;13.05;76.27;101059.44;5091931;28;20031;-46
2022/09/20 11:42:17;;;;;;;3.83;0.90;;;;;;;13.09;76.25;101061.44;5091864;28;20042;-50
2022/09/20 11:44:44;;;;;;;3.78;1.00;;;;;;;13.29;75.06;101058.66;5086261;28;20032;-45
2022/09/20 11:47:31;;;;;;;2.75;0.90;;;;;;;13.27;75.14;101060.75;5091655;28;20275;-46
2022/09/20 11:50:19;;;;;;;2.38;0.98;;;;;;;13.06;75.72;101059.22;5071229;28;20040;-48
2022/09/20 11:53:06;;;;;;;7.88;0.95;;;;;;;13.18;75.34;101059.34;5105358;28;20042;-46
2022/09/20 11:55:49;;;;;;;7.05;1.13;;;;;;;12.95;75.85;101058.03;5071828;28;20033;-45
2022/09/20 11:58:21;;;;;;;3.17;0.80;;;;;;;13.07;75.33;101060.03;5103886;28;20028;-46
2022/09/20 12:00:54;;;;;;;1.77;0.90;;;;;;;13.08;75.23;101059.81;5101519;28;20028;-45
2022/09/20 12:03:20;;;;;;;2.60;0.88;;;;;;;13.19;74.80;101055.59;5096354;28;20502;-46
2022/09/20 12:05:55;;;;;;;3.05;1.00;;;;;;;13.29;74.21;101069.41;5096523;28;20036;-46
2022/09/20 12:08:26;;;;;;;2.50;0.87;;;;;;;13.21;74.19;101058.91;5099643;28;20031;-46
2022/09/20 12:11:04;;;;;;;3.13;0.75;;;;;;;13.13;74.61;101067.22;5109202;28;20041;-48
2022/09/20 12:13:34;;;;;;;2.22;0.90;;;;;;;13.16;74.35;101056.06;5111823;28;20066;-46
2022/09/20 12:16:22;;;;;;;2.33;1.00;;;;;;;12.67;75.85;101055.72;5106036;28;20028;-47
2022/09/20 12:18:54;;;;;;;8.20;1.38;;;;;;;12.93;74.95;101057.41;5075186;28;20048;-47
2022/09/20 12:21:21;;;;;;;3.58;1.08;;;;;;;12.98;74.60;101048.72;5096495;28;20031;-47
2022/09/20 12:23:56;;;;;;;3.38;1.05;;;;;;;12.95;74.57;101058.03;5073065;28;20541;-45
2022/09/20 12:26:25;;;;;;;3.53;1.10;;;;;;;12.98;74.29;101058.63;5109964;28;20441;-48
2022/09/20 12:28:57;;;;;;;3.63;0.80;;;;;;;13.24;73.38;101057.69;5094824;28;20119;-49
2022/09/20 12:31:33;;;;;;;3.30;1.10;;;;;;;12.79;74.73;101063.91;5104554;28;20023;-46